createdAt,value
2018-09-12T00:00:57.740Z,73.57
2018-09-12T00:03:26.061Z,72.78
2018-09-12T00:05:54.671Z,73.63
2018-09-12T00:08:25.201Z,73.00
2018-09-12T00:10:53.864Z,73.96
2018-09-12T00:13:22.273Z,73.95
2018-09-12T00:15:50.693Z,73.58
2018-09-12T00:18:19.155Z,74.19
2018-09-12T00:20:47.597Z,73.61
2018-09-12T00:23:16.064Z,74.39
2018-09-12T00:25:44.469Z,74.46
2018-09-12T00:28:12.974Z,74.39
2018-09-12T00:30:41.417Z,74.32
2018-09-12T00:33:09.747Z,74.61
2018-09-12T00:35:38.248Z,74.84
2018-09-12T00:38:06.943Z,74.71
2018-09-12T00:40:35.349Z,74.33
2018-09-12T00:43:03.697Z,75.03
2018-09-12T00:45:32.204Z,74.39
2018-09-12T00:48:00.632Z,74.89
2018-09-12T00:50:29.050Z,75.17
2018-09-12T00:52:57.464Z,74.39
2018-09-12T00:55:25.823Z,74.73
2018-09-12T00:57:54.303Z,75.57
2018-09-12T01:00:23.046Z,74.94
2018-09-12T01:02:51.391Z,74.96
2018-09-12T01:05:19.872Z,75.74
2018-09-12T01:07:49.612Z,75.56
2018-09-12T01:10:17.988Z,75.81
2018-09-12T01:12:46.502Z,75.91
2018-09-12T01:15:14.991Z,75.18
2018-09-12T01:17:43.509Z,75.23
2018-09-12T01:20:11.898Z,75.97
2018-09-12T01:22:40.200Z,76.04
2018-09-12T01:25:08.776Z,76.28
2018-09-12T01:27:37.496Z,76.06
2018-09-12T01:30:09.340Z,76.09
2018-09-12T01:32:38.286Z,76.38
2018-09-12T01:35:07.462Z,75.68
2018-09-12T01:37:35.983Z,76.35
2018-09-12T01:40:05.691Z,75.90
2018-09-12T01:42:33.991Z,76.32
2018-09-12T01:45:04.065Z,76.42
2018-09-12T01:47:32.460Z,76.66
2018-09-12T01:50:00.851Z,76.24
2018-09-12T01:52:29.286Z,76.34
2018-09-12T01:54:57.696Z,76.96
2018-09-12T01:57:26.070Z,76.56
2018-09-12T01:59:54.770Z,76.92
2018-09-12T02:02:23.153Z,76.85
2018-09-12T02:04:51.525Z,76.84
2018-09-12T02:07:20.081Z,76.63
2018-09-12T02:09:48.432Z,77.09
2018-09-12T02:12:16.913Z,77.47
2018-09-12T02:14:45.290Z,76.50
2018-09-12T02:17:13.752Z,77.41
2018-09-12T02:19:42.295Z,77.19
2018-09-12T02:22:10.743Z,77.31
2018-09-12T02:24:39.515Z,77.27
2018-09-12T02:27:09.161Z,76.63
2018-09-12T02:29:37.553Z,76.63
2018-09-12T02:32:06.711Z,77.07
2018-09-12T02:34:35.159Z,77.38
2018-09-12T02:37:05.347Z,77.04
2018-09-12T02:42:00.932Z,77.02
2018-09-12T02:44:29.319Z,77.01
2018-09-12T02:46:57.856Z,77.07
2018-09-12T02:49:26.308Z,77.32
2018-09-12T02:51:54.689Z,77.82
2018-09-12T02:54:23.089Z,77.20
2018-09-12T02:56:51.480Z,77.28
2018-09-12T02:59:19.895Z,78.01
2018-09-12T03:01:48.200Z,77.41
2018-09-12T03:04:16.879Z,77.19
2018-09-12T03:06:45.413Z,77.84
2018-09-12T03:09:13.791Z,78.07
2018-09-12T03:11:42.075Z,77.53
2018-09-12T03:14:10.517Z,77.50
2018-09-12T03:16:38.889Z,77.99
2018-09-12T03:19:07.456Z,77.58
2018-09-12T03:21:35.950Z,78.14
2018-09-12T03:24:04.420Z,77.56
2018-09-12T03:26:32.889Z,77.80
2018-09-12T03:29:01.616Z,78.09
2018-09-12T03:31:30.073Z,77.92
2018-09-12T03:33:58.557Z,77.68
2018-09-12T03:36:27.083Z,77.76
2018-09-12T03:38:55.420Z,77.27
2018-09-12T03:41:23.710Z,77.86
2018-09-12T03:43:52.182Z,77.08
2018-09-12T03:46:20.580Z,77.96
2018-09-12T03:48:49.062Z,77.57
2018-09-12T03:51:17.752Z,78.19
2018-09-12T03:53:46.445Z,78.34
2018-09-12T03:56:14.769Z,78.37
2018-09-12T03:58:43.311Z,78.40
2018-09-12T04:01:11.764Z,77.76
2018-09-12T04:03:40.190Z,77.88
2018-09-12T04:06:08.722Z,77.94
2018-09-12T04:08:37.180Z,78.18
2018-09-12T04:11:05.931Z,78.87
2018-09-12T04:13:34.425Z,79.01
2018-09-12T04:16:03.841Z,78.56
2018-09-12T04:21:00.201Z,78.79
2018-09-12T04:23:28.602Z,79.10
2018-09-12T04:25:56.970Z,79.16
2018-09-12T04:28:26.350Z,79.09
2018-09-12T04:30:54.807Z,79.30
2018-09-12T04:33:23.150Z,79.46
2018-09-12T04:35:51.479Z,79.00
2018-09-12T04:38:20.067Z,79.15
2018-09-12T04:40:48.703Z,79.25
2018-09-12T04:43:18.703Z,79.67
2018-09-12T04:45:47.145Z,79.96
2018-09-12T04:48:15.957Z,80.52
2018-09-12T04:50:44.506Z,80.29
2018-09-12T04:53:12.916Z,80.70
2018-09-12T04:55:41.307Z,80.26
2018-09-12T04:58:09.694Z,80.73
2018-09-12T05:00:38.108Z,81.03
2018-09-12T05:03:07.404Z,81.20
2018-09-12T05:05:35.832Z,80.53
2018-09-12T05:08:05.018Z,80.86
2018-09-12T05:10:33.387Z,81.30
2018-09-12T05:13:02.139Z,81.63
2018-09-12T05:15:31.237Z,81.53
2018-09-12T05:17:59.589Z,80.93
2018-09-12T05:20:28.075Z,81.82
2018-09-12T05:22:56.674Z,81.69
2018-09-12T05:25:25.662Z,81.43
2018-09-12T05:30:21.733Z,81.72
2018-09-12T05:32:51.870Z,81.08
2018-09-12T05:35:20.584Z,81.86
2018-09-12T05:37:49.025Z,81.67
2018-09-12T05:40:17.442Z,82.17
2018-09-12T05:42:45.917Z,82.17
2018-09-12T05:45:14.489Z,81.68
2018-09-12T05:47:42.829Z,82.35
2018-09-12T05:50:11.509Z,81.62
2018-09-12T05:52:40.004Z,81.85
2018-09-12T05:55:08.524Z,81.87
2018-09-12T05:57:37.536Z,82.36
2018-09-12T06:00:06.905Z,82.09
2018-09-12T06:02:35.322Z,82.08
2018-09-12T06:05:03.808Z,81.94
2018-09-12T06:07:32.267Z,81.83
2018-09-12T06:10:01.044Z,81.83
2018-09-12T06:12:29.526Z,82.62
2018-09-12T06:14:57.982Z,82.33
2018-09-12T06:17:26.379Z,82.61
2018-09-12T06:19:54.965Z,82.18
2018-09-12T06:22:23.431Z,81.97
2018-09-12T06:24:51.889Z,81.83
2018-09-12T06:27:20.409Z,82.78
2018-09-12T06:29:48.756Z,82.71
2018-09-12T06:32:17.138Z,82.80
2018-09-12T06:34:45.466Z,82.65
2018-09-12T06:37:13.822Z,82.65
2018-09-12T06:39:42.293Z,82.96
2018-09-12T06:42:10.623Z,82.72
2018-09-12T06:44:39.287Z,82.74
2018-09-12T06:47:08.431Z,83.03
2018-09-12T06:49:37.005Z,82.39
2018-09-12T06:52:09.635Z,82.92
2018-09-12T06:54:37.954Z,82.85
2018-09-12T06:57:06.346Z,82.41
2018-09-12T06:59:34.839Z,82.38
2018-09-12T07:02:03.325Z,83.22
2018-09-12T07:04:31.847Z,83.26
2018-09-12T07:07:00.827Z,82.88
2018-09-12T07:09:29.219Z,82.38
2018-09-12T07:11:57.860Z,82.26
2018-09-12T07:14:26.321Z,83.05
2018-09-12T07:16:54.677Z,82.89
2018-09-12T07:19:23.315Z,83.03
2018-09-12T07:21:51.805Z,82.86
2018-09-12T07:24:20.255Z,82.16
2018-09-12T07:26:48.829Z,82.91
2018-09-12T07:29:17.320Z,82.76
2018-09-12T07:31:45.826Z,82.70
2018-09-12T07:34:14.177Z,82.97
2018-09-12T07:36:42.887Z,82.30
2018-09-12T07:39:13.066Z,82.38
2018-09-12T07:41:41.606Z,81.97
2018-09-12T07:44:10.125Z,82.83
2018-09-12T07:46:38.717Z,82.79
2018-09-12T07:49:07.984Z,82.96
2018-09-12T07:51:36.497Z,82.81
2018-09-12T07:54:05.042Z,82.96
2018-09-12T07:56:33.644Z,82.87
2018-09-12T07:59:02.208Z,81.91
2018-09-12T08:01:30.474Z,81.80
2018-09-12T08:03:58.822Z,81.41
2018-09-12T08:06:27.264Z,81.40
2018-09-12T08:08:55.786Z,81.37
2018-09-12T08:11:24.105Z,81.37
2018-09-12T08:13:52.493Z,82.04
2018-09-12T08:16:20.960Z,82.05
2018-09-12T08:18:49.337Z,81.94
2018-09-12T08:21:17.673Z,81.75
2018-09-12T08:23:46.159Z,81.90
2018-09-12T08:26:14.546Z,81.84
2018-09-12T08:28:42.903Z,82.40
2018-09-12T08:31:11.292Z,82.97
2018-09-12T08:33:39.860Z,82.12
2018-09-12T08:36:09.076Z,83.05
2018-09-12T08:38:37.672Z,82.86
2018-09-12T08:41:07.047Z,83.06
2018-09-12T08:43:35.510Z,82.41
2018-09-12T08:46:04.978Z,81.99
2018-09-12T08:48:33.554Z,82.46
2018-09-12T08:51:02.234Z,82.28
2018-09-12T08:53:30.647Z,83.46
2018-09-12T08:55:59.064Z,83.46
2018-09-12T08:58:27.458Z,82.94
2018-09-12T09:00:55.833Z,83.44
2018-09-12T09:03:24.187Z,82.94
2018-09-12T09:05:52.602Z,83.46
2018-09-12T09:08:21.088Z,82.65
2018-09-12T09:10:49.595Z,83.26
2018-09-12T09:13:17.959Z,82.98
2018-09-12T09:15:46.253Z,82.73
2018-09-12T09:18:14.961Z,82.70
2018-09-12T09:20:43.610Z,82.24
2018-09-12T09:23:12.132Z,82.46
2018-09-12T09:25:40.545Z,82.18
2018-09-12T09:28:09.336Z,82.11
2018-09-12T09:30:37.791Z,82.26
2018-09-12T09:33:06.452Z,82.79
2018-09-12T09:35:34.965Z,82.19
2018-09-12T09:38:03.345Z,82.36
2018-09-12T09:40:31.769Z,83.14
2018-09-12T09:43:00.222Z,83.15
2018-09-12T09:45:28.699Z,82.41
2018-09-12T09:47:57.192Z,82.52
2018-09-12T09:50:25.719Z,83.22
2018-09-12T09:52:54.229Z,82.98
2018-09-12T09:55:23.501Z,83.02
2018-09-12T09:57:51.875Z,82.72
2018-09-12T10:00:25.667Z,82.40
2018-09-12T10:02:59.285Z,82.45
2018-09-12T10:05:33.118Z,82.68
2018-09-12T10:08:06.914Z,83.27
2018-09-12T10:10:35.509Z,83.12
2018-09-12T10:13:04.913Z,82.76
2018-09-12T10:15:33.284Z,82.76
2018-09-12T10:18:01.729Z,82.38
2018-09-12T10:20:30.180Z,81.89
2018-09-12T10:23:00.253Z,81.94
2018-09-12T10:25:29.007Z,81.45
2018-09-12T10:27:57.313Z,81.41
2018-09-12T10:30:26.236Z,81.98
2018-09-12T10:35:21.900Z,81.58
2018-09-12T10:37:50.321Z,81.69
2018-09-12T10:40:18.724Z,81.04
2018-09-12T10:42:47.112Z,81.07
2018-09-12T10:45:15.499Z,80.72
2018-09-12T10:47:43.892Z,80.80
2018-09-12T10:50:12.232Z,81.12
2018-09-12T10:52:40.917Z,81.34
2018-09-12T10:55:09.460Z,80.75
2018-09-12T10:57:37.796Z,81.11
2018-09-12T11:00:08.914Z,80.30
2018-09-12T11:02:37.581Z,80.27
2018-09-12T11:05:06.909Z,80.58
2018-09-12T11:07:35.365Z,79.76
2018-09-12T11:10:03.804Z,80.24
2018-09-12T11:12:32.349Z,79.78
2018-09-12T11:15:00.693Z,80.18
2018-09-12T11:17:28.972Z,79.98
2018-09-12T11:19:57.378Z,79.15
2018-09-12T11:22:25.693Z,79.15
2018-09-12T11:24:54.199Z,79.50
2018-09-12T11:27:22.650Z,79.36
2018-09-12T11:29:50.996Z,78.68
2018-09-12T11:32:19.426Z,79.16
2018-09-12T11:34:47.948Z,79.16
2018-09-12T11:37:16.642Z,78.56
2018-09-12T11:39:45.049Z,78.40
2018-09-12T11:42:13.453Z,78.81
2018-09-12T11:44:41.937Z,78.74
2018-09-12T11:47:10.450Z,77.75
2018-09-12T11:49:39.477Z,78.28
2018-09-12T11:52:08.617Z,78.72
2018-09-12T11:54:37.156Z,78.46
2018-09-12T11:57:06.164Z,78.15
2018-09-12T11:59:34.832Z,78.19
2018-09-12T12:02:03.319Z,78.23
2018-09-12T12:04:31.704Z,78.68
2018-09-12T12:07:00.197Z,77.77
2018-09-12T12:09:28.557Z,78.78
2018-09-12T12:11:56.944Z,79.05
2018-09-12T12:14:26.327Z,79.10
2018-09-12T12:16:54.842Z,79.07
2018-09-12T12:19:24.138Z,79.19
2018-09-12T12:21:52.422Z,78.59
2018-09-12T12:24:20.936Z,78.67
2018-09-12T12:26:49.958Z,78.56
2018-09-12T12:29:18.468Z,79.55
2018-09-12T12:31:47.090Z,79.40
2018-09-12T12:34:15.639Z,78.90
2018-09-12T12:36:44.112Z,79.34
2018-09-12T12:39:12.924Z,79.58
2018-09-12T12:41:42.245Z,79.42
2018-09-12T12:44:11.029Z,79.18
2018-09-12T12:46:39.478Z,78.81
2018-09-12T12:49:08.430Z,78.98
2018-09-12T12:51:36.810Z,79.72
2018-09-12T12:54:05.494Z,78.92
2018-09-12T12:56:33.908Z,79.41
2018-09-12T12:59:02.572Z,78.98
2018-09-12T13:01:31.368Z,80.08
2018-09-12T13:03:59.798Z,79.25
2018-09-12T13:06:28.154Z,79.51
2018-09-12T13:08:57.628Z,79.67
2018-09-12T13:11:26.962Z,79.30
2018-09-12T13:13:55.301Z,79.21
2018-09-12T13:16:23.661Z,79.82
2018-09-12T13:18:52.052Z,79.84
2018-09-12T13:21:20.445Z,80.06
2018-09-12T13:23:48.938Z,79.34
2018-09-12T13:26:17.420Z,80.36
2018-09-12T13:28:45.902Z,79.78
2018-09-12T13:31:14.849Z,80.10
2018-09-12T13:33:43.477Z,80.38
2018-09-12T13:36:11.985Z,80.37
2018-09-12T13:38:40.405Z,80.61
2018-09-12T13:41:08.862Z,79.60
2018-09-12T13:43:37.307Z,79.07
2018-09-12T13:46:05.875Z,79.29
2018-09-12T13:48:34.306Z,79.45
2018-09-12T13:51:02.755Z,79.46
2018-09-12T13:53:31.125Z,79.61
2018-09-12T13:55:59.407Z,79.99
2018-09-12T13:58:27.908Z,79.89
2018-09-12T14:00:56.319Z,80.35
2018-09-12T14:03:24.733Z,80.35
2018-09-12T14:05:53.209Z,79.84
2018-09-12T14:08:21.810Z,80.26
2018-09-12T14:10:50.872Z,80.47
2018-09-12T14:13:19.437Z,79.70
2018-09-12T14:15:47.921Z,79.97
2018-09-12T14:18:16.433Z,80.46
2018-09-12T14:20:46.844Z,79.72
2018-09-12T14:23:15.380Z,79.86
2018-09-12T14:25:43.857Z,79.32
2018-09-12T14:28:12.646Z,79.80
2018-09-12T14:30:41.695Z,79.93
2018-09-12T14:33:10.333Z,80.31
2018-09-12T14:35:39.199Z,80.44
2018-09-12T14:38:08.217Z,80.12
2018-09-12T14:40:36.728Z,79.90
2018-09-12T14:43:05.235Z,80.21
2018-09-12T14:45:33.814Z,79.73
2018-09-12T14:48:02.601Z,79.63
2018-09-12T14:50:31.078Z,79.31
2018-09-12T14:53:00.156Z,79.79
2018-09-12T14:55:28.767Z,79.09
2018-09-12T14:57:57.169Z,78.89
2018-09-12T15:00:27.589Z,78.63
2018-09-12T15:02:57.646Z,79.24
2018-09-12T15:05:26.401Z,78.91
2018-09-12T15:07:55.707Z,78.50
2018-09-12T15:10:24.642Z,78.59
2018-09-12T15:12:53.530Z,79.31
2018-09-12T15:15:22.070Z,78.97
2018-09-12T15:17:50.426Z,79.01
2018-09-12T15:20:18.841Z,78.66
2018-09-12T15:22:47.536Z,78.62
2018-09-12T15:25:16.628Z,78.51
2018-09-12T15:27:45.190Z,78.03
2018-09-12T15:30:13.772Z,78.48
2018-09-12T15:32:42.396Z,77.90
2018-09-12T15:35:11.884Z,77.93
2018-09-12T15:37:40.447Z,77.75
2018-09-12T15:40:08.962Z,78.09
2018-09-12T15:42:37.445Z,78.15
2018-09-12T15:45:05.967Z,78.28
2018-09-12T15:47:34.565Z,77.71
2018-09-12T15:50:03.168Z,77.92
2018-09-12T15:52:31.516Z,77.37
2018-09-12T15:55:00.108Z,77.10
2018-09-12T15:57:28.469Z,78.08
2018-09-12T15:59:57.278Z,77.13
2018-09-12T16:02:25.661Z,77.56
2018-09-12T16:04:54.079Z,77.29
2018-09-12T16:07:22.597Z,77.60
2018-09-12T16:09:50.934Z,76.75
2018-09-12T16:12:19.342Z,76.89
2018-09-12T16:14:47.646Z,77.02
2018-09-12T16:17:16.056Z,76.47
2018-09-12T16:19:44.505Z,76.22
2018-09-12T16:22:13.163Z,76.64
2018-09-12T16:24:41.683Z,76.50
2018-09-12T16:27:10.057Z,76.33
2018-09-12T16:29:38.369Z,75.59
2018-09-12T16:32:07.198Z,76.00
2018-09-12T16:34:35.621Z,75.58
2018-09-12T16:37:04.056Z,76.08
2018-09-12T16:39:33.204Z,75.50
2018-09-12T16:42:01.717Z,75.98
2018-09-12T16:44:30.174Z,75.50
2018-09-12T16:46:58.539Z,75.41
2018-09-12T16:49:27.063Z,75.63
2018-09-12T16:51:55.479Z,75.38
2018-09-12T16:54:24.053Z,75.28
2018-09-12T16:56:52.599Z,75.57
2018-09-12T16:59:21.136Z,75.71
2018-09-12T17:01:49.579Z,75.06
2018-09-12T17:04:18.086Z,76.05
2018-09-12T17:06:46.573Z,75.73
2018-09-12T17:09:15.184Z,75.45
2018-09-12T17:11:43.760Z,75.33
2018-09-12T17:14:12.496Z,75.72
2018-09-12T17:16:41.753Z,75.83
2018-09-12T17:19:10.122Z,75.20
2018-09-12T17:21:38.672Z,75.01
2018-09-12T17:24:08.267Z,75.81
2018-09-12T17:26:36.786Z,75.52
2018-09-12T17:29:05.303Z,76.13
2018-09-12T17:31:33.801Z,76.11
2018-09-12T17:34:02.236Z,75.48
2018-09-12T17:36:31.501Z,75.52
2018-09-12T17:38:59.950Z,75.44
2018-09-12T17:41:28.741Z,76.32
2018-09-12T17:43:57.172Z,76.16
2018-09-12T17:46:25.697Z,75.70
2018-09-12T17:48:54.067Z,75.84
2018-09-12T17:51:22.548Z,76.44
2018-09-12T17:53:51.163Z,76.35
2018-09-12T17:56:19.785Z,76.29
2018-09-12T17:58:48.132Z,76.70
2018-09-12T18:01:16.769Z,76.76
2018-09-12T18:03:45.605Z,76.02
2018-09-12T18:06:14.744Z,76.58
2018-09-12T18:08:43.342Z,76.10
2018-09-12T18:11:11.897Z,76.12
2018-09-12T18:13:40.423Z,76.85
2018-09-12T18:16:09.056Z,76.62
2018-09-12T18:18:37.610Z,77.11
2018-09-12T18:21:06.223Z,76.99
2018-09-12T18:23:34.653Z,76.80
2018-09-12T18:26:03.145Z,76.47
2018-09-12T18:28:32.301Z,77.00
2018-09-12T18:31:01.160Z,77.29
2018-09-12T18:33:29.899Z,76.48
2018-09-12T18:35:58.606Z,77.30
2018-09-12T18:38:27.504Z,76.66
2018-09-12T18:40:56.266Z,77.55
2018-09-12T18:43:25.289Z,77.34
2018-09-12T18:45:53.861Z,77.74
2018-09-12T18:48:22.322Z,77.51
2018-09-12T18:50:50.906Z,78.04
2018-09-12T18:53:19.307Z,77.54
2018-09-12T18:55:47.952Z,78.15
2018-09-12T18:58:16.674Z,78.10
2018-09-12T19:00:45.339Z,78.31
2018-09-12T19:03:13.897Z,77.89
2018-09-12T19:05:42.315Z,78.27
2018-09-12T19:08:11.593Z,78.58
2018-09-12T19:10:40.015Z,78.81
2018-09-12T19:13:08.596Z,78.41
2018-09-12T19:15:37.033Z,79.00
2018-09-12T19:18:06.348Z,79.11
2018-09-12T19:20:34.883Z,78.52
2018-09-12T19:23:03.505Z,78.81
2018-09-12T19:25:31.989Z,79.29
2018-09-12T19:28:00.400Z,79.73
2018-09-12T19:30:29.775Z,79.61
2018-09-12T19:32:58.973Z,79.87
2018-09-12T19:35:32.258Z,79.64
2018-09-12T19:38:00.696Z,80.50
2018-09-12T19:40:30.246Z,80.16
2018-09-12T19:42:58.616Z,79.96
2018-09-12T19:45:27.393Z,79.99
2018-09-12T19:47:56.108Z,80.14
2018-09-12T19:50:25.129Z,80.25
2018-09-12T19:52:53.522Z,80.61
2018-09-12T19:55:22.091Z,80.06
2018-09-12T19:57:51.385Z,80.70
2018-09-12T20:00:20.891Z,80.45
2018-09-12T20:02:49.346Z,81.20
2018-09-12T20:05:17.881Z,80.57
2018-09-12T20:07:46.804Z,80.52
2018-09-12T20:10:15.811Z,81.10
2018-09-12T20:12:44.326Z,80.83
2018-09-12T20:15:12.815Z,80.63
2018-09-12T20:17:41.485Z,81.43
2018-09-12T20:20:10.139Z,81.17
2018-09-12T20:22:38.617Z,81.01
2018-09-12T20:25:07.047Z,81.24
2018-09-12T20:27:35.418Z,80.54
2018-09-12T20:30:04.055Z,81.40
2018-09-12T20:32:32.426Z,80.85
2018-09-12T20:35:01.058Z,80.95
2018-09-12T20:37:29.881Z,80.90
2018-09-12T20:39:58.471Z,80.63
2018-09-12T20:42:26.828Z,80.58
2018-09-12T20:44:56.039Z,81.21
2018-09-12T20:47:24.526Z,80.94
2018-09-12T20:49:52.884Z,81.65
2018-09-12T20:52:21.342Z,81.26
2018-09-12T20:54:49.753Z,80.77
2018-09-12T20:57:18.299Z,81.56
2018-09-12T20:59:46.599Z,81.31
2018-09-12T21:02:15.108Z,81.45
2018-09-12T21:04:44.196Z,80.73
2018-09-12T21:07:12.632Z,81.58
2018-09-12T21:09:41.028Z,81.23
2018-09-12T21:12:09.480Z,81.11
2018-09-12T21:14:37.942Z,81.47
2018-09-12T21:17:06.505Z,81.28
2018-09-12T21:19:34.994Z,80.98
2018-09-12T21:22:03.610Z,81.40
2018-09-12T21:24:32.536Z,81.51
2018-09-12T21:27:01.116Z,81.75
2018-09-12T21:29:29.836Z,81.33
2018-09-12T21:31:58.492Z,81.62
2018-09-12T21:34:27.530Z,80.95
2018-09-12T21:36:56.043Z,81.94
2018-09-12T21:39:24.545Z,81.40
2018-09-12T21:41:52.861Z,81.42
2018-09-12T21:44:21.212Z,81.37
2018-09-12T21:46:49.606Z,81.22
2018-09-12T21:49:17.959Z,81.90
2018-09-12T21:51:46.338Z,81.18
2018-09-12T21:54:14.773Z,81.15
2018-09-12T21:56:43.217Z,81.46
2018-09-12T21:59:11.485Z,81.29
2018-09-12T22:01:39.973Z,81.84
2018-09-12T22:04:08.387Z,82.06
2018-09-12T22:06:36.796Z,81.62
2018-09-12T22:09:08.818Z,81.61
2018-09-12T22:11:37.620Z,81.70
2018-09-12T22:14:06.212Z,82.05
2018-09-12T22:16:34.683Z,81.51
2018-09-12T22:19:04.504Z,81.71
2018-09-12T22:21:33.023Z,82.23
2018-09-12T22:24:01.660Z,81.51
2018-09-12T22:26:30.341Z,82.09
2018-09-12T22:28:58.690Z,82.02
2018-09-12T22:31:27.011Z,81.61
2018-09-12T22:33:55.388Z,82.14
2018-09-12T22:36:23.774Z,82.09
2018-09-12T22:38:52.354Z,81.48
2018-09-12T22:41:20.758Z,82.07
2018-09-12T22:43:49.261Z,82.09
2018-09-12T22:46:17.996Z,82.16
2018-09-12T22:48:46.462Z,82.04
2018-09-12T22:51:15.418Z,82.10
2018-09-12T22:53:43.821Z,81.83
2018-09-12T22:56:12.334Z,82.25
2018-09-12T22:58:41.674Z,81.72
2018-09-12T23:01:10.179Z,81.50
2018-09-12T23:03:38.484Z,81.69
2018-09-12T23:06:07.699Z,82.10
2018-09-12T23:08:36.374Z,82.33
2018-09-12T23:11:04.791Z,81.86
2018-09-12T23:13:33.112Z,81.53
2018-09-12T23:16:01.578Z,81.67
2018-09-12T23:18:30.081Z,81.45
2018-09-12T23:20:58.554Z,81.58
2018-09-12T23:23:27.749Z,81.66
2018-09-12T23:25:56.078Z,81.96
2018-09-12T23:28:24.426Z,81.53
2018-09-12T23:30:52.865Z,81.54
2018-09-12T23:33:21.304Z,81.43
2018-09-12T23:35:49.677Z,82.03
2018-09-12T23:38:18.208Z,81.92
2018-09-12T23:40:46.572Z,82.12
2018-09-12T23:43:15.159Z,82.15
2018-09-12T23:45:43.578Z,81.36
2018-09-12T23:48:12.570Z,81.77
2018-09-12T23:50:40.968Z,81.47
2018-09-12T23:53:09.736Z,82.29
2018-09-12T23:55:38.126Z,82.14
2018-09-12T23:58:07.045Z,82.13
